New Bloomington, Ohio
Current Conditions -  °F | °C
As of 12:53 PM on Monday 24 Nov 2014 (Local Time) from KMNN Reporting Station
Overcast Overcast  
Wind Chill: 56°   Ceiling: 3500
Heat Index: 56°   Visibility: 10mi
Dew Point: 46°   Wind: 23mph
Humidity: 69%   Direction: 240°WSW
Pressure: 29.38"   Gusts: 44mph
Location:  40.58°N, 83.32°W
Report Text: KMNN 241753Z AUTO 24020G38KT 10SM FEW024 BKN035 OVC055 13/08 A2938 RMK AO2 PK WND 24045/1733 RAE1659 PRESRR SLP947 P0000 60013 T01330078 10161 20122 53026 TSNO
Loading
Personal Weather Stations






























Interactive Weather Map New forecast layout! Learn more

10-Day Weather Forecast

Advertisements
Track Severe Weather on mobile